Aérodrome :
LOGIN :

S'inscrire | Disclaimer

   EN    FR    IT 

 










Légende :    VFR   VFR Marginal   IFR   IFR Intensif   IFR Très Intensif
Visi : 
Plafond : 
>= 8 km
>= 3000ft
5 à 8 km
1000 à 3000 ft
1500m à 5 km
500 à 1000 ft
800 à 1500m
200 à 500 ft
< 800m
< 200 ft
Symboles :   Orages  Brouillard  Fortes neiges  Fortes précipitations  Vent > 20 kt
SIGMETs :   Divers  Orages  Givrage  Turbulence  Onde Orograph.  Cendres Volcan.







- Altitude de l'aérodrome : 106 ft
- Code IATA : NRN


EDLV - Weeze

DERNIER METAR :
  • 252250Z 04006KT 360V150 CAVOK M04/M07 Q1030

METARs EXPIRÉS :
  • 252220Z 05005KT 350V110 CAVOK M03/M08 Q1030
  • 252150Z 05005KT 350V120 CAVOK M03/M08 Q1030
  • 252120Z 05009KT 340V100 CAVOK M03/M09 Q1030
  • 252050Z VRB08KT CAVOK M03/M09 Q1030
  • 252020Z 06009KT 360V130 CAVOK M02/M10 Q1030

TAF TAF EDLV
Valide du 25 à 18h jusqu'au 26 à 18h UTC


251700Z 2518/2618 06010KT CAVOK
BECMG 2518/2520 04005KT
BECMG 2609/2612 04013KT
TEMPO 2609/2616 06015G25KT
Pas de NOTAMs connus pour ce terrain.



MET'MAP, la Météo Aéronautique d'un coup d'oeil ! - Copyright ORBIFLY Décembre 2007 - Disclaimer

ORBIFLY MET'MAP TEAM :

Programmation & Développement : Alexandra Zaïnal
Conception & Développement : Baudouin d'Aumeries
Co-Programmation & Développement : Marc-Olivier Méhu
Soutien technique & logistique : Manuel Goepfert

Contact : metmap@orbifly.com




SOURCES & CREDITS :

   NOAA